createdAt,value
2023-04-14T00:00:46.674Z,100.00
2023-04-14T00:03:13.865Z,100.00
2023-04-14T00:05:41.225Z,100.00
2023-04-14T00:08:08.194Z,100.00
2023-04-14T00:10:35.108Z,100.00
2023-04-14T00:13:02.316Z,100.00
2023-04-14T00:15:29.567Z,100.00
2023-04-14T00:17:56.720Z,100.00
2023-04-14T00:20:23.968Z,100.00
2023-04-14T00:22:51.197Z,100.00
2023-04-14T00:25:18.341Z,100.00
2023-04-14T00:27:45.503Z,100.00
2023-04-14T00:30:12.768Z,100.00
2023-04-14T00:32:39.805Z,100.00
2023-04-14T00:35:07.175Z,100.00
2023-04-14T00:37:34.391Z,100.00
2023-04-14T00:40:01.413Z,100.00
2023-04-14T00:42:28.707Z,100.00
2023-04-14T00:44:55.582Z,100.00
2023-04-14T00:47:26.132Z,100.00
2023-04-14T00:49:53.125Z,100.00
2023-04-14T00:52:23.671Z,100.00
2023-04-14T00:54:51.036Z,100.00
2023-04-14T00:57:18.315Z,100.00
2023-04-14T00:59:45.382Z,100.00
2023-04-14T01:02:13.115Z,100.00
2023-04-14T01:04:53.758Z,100.00
2023-04-14T01:07:23.440Z,100.00
2023-04-14T01:09:52.070Z,100.00
2023-04-14T01:12:42.726Z,100.00
2023-04-14T01:15:22.602Z,100.00
2023-04-14T01:18:00.776Z,100.00
2023-04-14T01:20:42.537Z,100.00
2023-04-14T01:23:13.557Z,100.00
2023-04-14T01:26:11.715Z,100.00
2023-04-14T01:29:08.597Z,100.00
2023-04-14T01:31:38.960Z,100.00
2023-04-14T01:34:35.176Z,100.00
2023-04-14T01:37:09.482Z,100.00
2023-04-14T01:39:41.351Z,100.00
2023-04-14T01:42:13.210Z,100.00
2023-04-14T01:44:41.661Z,100.00
2023-04-14T01:47:12.099Z,100.00
2023-04-14T01:49:41.578Z,100.00
2023-04-14T01:52:11.664Z,100.00
2023-04-14T01:54:41.653Z,100.00
2023-04-14T01:57:12.944Z,100.00
2023-04-14T01:59:42.685Z,100.00
2023-04-14T02:02:14.187Z,100.00
2023-04-14T02:04:42.669Z,100.00
2023-04-14T02:07:12.766Z,100.00
2023-04-14T02:09:42.127Z,100.00
2023-04-14T02:12:12.035Z,100.00
2023-04-14T02:14:43.574Z,100.00
2023-04-14T02:17:12.428Z,100.00
2023-04-14T02:19:41.453Z,100.00
2023-04-14T02:22:08.804Z,100.00
2023-04-14T02:24:35.917Z,100.00
2023-04-14T02:27:10.691Z,100.00
2023-04-14T02:29:41.220Z,100.00
2023-04-14T02:32:15.044Z,100.00
2023-04-14T02:35:09.822Z,100.00
2023-04-14T02:37:38.044Z,100.00
2023-04-14T02:40:12.882Z,100.00
2023-04-14T02:42:45.389Z,100.00
2023-04-14T02:45:14.024Z,100.00
2023-04-14T02:47:46.457Z,100.00
2023-04-14T02:50:18.489Z,100.00
2023-04-14T02:52:56.884Z,100.00
2023-04-14T02:55:28.856Z,100.00
2023-04-14T02:57:57.605Z,100.00
2023-04-14T03:00:24.950Z,100.00
2023-04-14T03:02:54.803Z,100.00
2023-04-14T03:05:22.388Z,100.00
2023-04-14T03:08:01.166Z,100.00
2023-04-14T03:10:28.799Z,100.00
2023-04-14T03:12:58.991Z,100.00
2023-04-14T03:15:27.531Z,100.00
2023-04-14T03:17:57.558Z,100.00
2023-04-14T03:20:27.167Z,100.00
2023-04-14T03:23:06.497Z,100.00
2023-04-14T03:25:50.087Z,100.00
2023-04-14T03:28:25.915Z,100.00
2023-04-14T03:30:55.449Z,100.00
2023-04-14T03:33:28.988Z,100.00
2023-04-14T03:35:58.954Z,100.00
2023-04-14T03:38:28.428Z,100.00
2023-04-14T03:41:04.424Z,100.00
2023-04-14T03:43:33.986Z,100.00
2023-04-14T03:46:06.564Z,100.00
2023-04-14T03:48:40.079Z,100.00
2023-04-14T03:51:09.539Z,100.00
2023-04-14T03:53:41.137Z,100.00
2023-04-14T03:56:11.190Z,100.00
2023-04-14T03:58:38.750Z,100.00
2023-04-14T04:01:06.877Z,100.00
2023-04-14T04:03:37.172Z,100.00
2023-04-14T04:06:05.515Z,100.00
2023-04-14T04:08:34.559Z,100.00
2023-04-14T04:11:08.067Z,100.00
2023-04-14T04:13:37.203Z,100.00
2023-04-14T04:16:08.174Z,100.00
2023-04-14T04:18:38.535Z,100.00
2023-04-14T04:21:09.329Z,100.00
2023-04-14T04:23:40.719Z,100.00
2023-04-14T04:26:08.778Z,100.00
2023-04-14T04:28:39.873Z,100.00
2023-04-14T04:31:09.921Z,100.00
2023-04-14T04:33:38.495Z,100.00
2023-04-14T04:36:06.722Z,100.00
2023-04-14T04:38:39.747Z,100.00
2023-04-14T04:41:07.164Z,100.00
2023-04-14T04:43:33.987Z,100.00
2023-04-14T04:46:41.547Z,100.00
2023-04-14T04:49:09.034Z,100.00
2023-04-14T04:51:36.477Z,100.00
2023-04-14T04:54:04.249Z,100.00
2023-04-14T04:56:32.031Z,100.00
2023-04-14T04:58:59.748Z,100.00
2023-04-14T05:01:27.597Z,100.00
2023-04-14T05:03:55.002Z,100.00
2023-04-14T05:06:22.645Z,100.00
2023-04-14T05:08:54.180Z,100.00
2023-04-14T05:11:21.768Z,100.00
2023-04-14T05:13:49.251Z,100.00
2023-04-14T05:16:17.558Z,100.00
2023-04-14T05:18:44.478Z,100.00
2023-04-14T05:21:13.640Z,100.00
2023-04-14T05:23:43.885Z,100.00
2023-04-14T05:28:44.200Z,100.00
2023-04-14T05:31:11.968Z,100.00
2023-04-14T05:33:40.248Z,100.00
2023-04-14T05:36:07.806Z,100.00
2023-04-14T05:38:42.071Z,100.00
2023-04-14T05:41:09.970Z,100.00
2023-04-14T05:43:37.428Z,100.00
2023-04-14T05:46:04.937Z,100.00
2023-04-14T05:48:33.759Z,100.00
2023-04-14T05:51:01.588Z,100.00
2023-04-14T05:53:28.823Z,100.00
2023-04-14T05:55:57.640Z,100.00
2023-04-14T05:58:26.910Z,100.00
2023-04-14T06:00:54.016Z,100.00
2023-04-14T06:03:21.857Z,100.00
2023-04-14T06:05:50.887Z,100.00
2023-04-14T06:08:19.259Z,100.00
2023-04-14T06:10:46.471Z,100.00
2023-04-14T06:13:13.932Z,100.00
2023-04-14T06:15:41.394Z,100.00
2023-04-14T06:18:08.709Z,100.00
2023-04-14T06:20:36.526Z,100.00
2023-04-14T06:23:04.427Z,100.00
2023-04-14T06:25:31.992Z,100.00
2023-04-14T06:27:59.370Z,100.00
2023-04-14T06:30:28.745Z,100.00
2023-04-14T06:32:56.634Z,100.00
2023-04-14T06:35:33.033Z,100.00
2023-04-14T06:38:02.373Z,100.00
2023-04-14T06:40:31.404Z,100.00
2023-04-14T06:42:59.781Z,100.00
2023-04-14T06:45:27.849Z,100.00
2023-04-14T06:47:56.478Z,100.00
2023-04-14T06:50:24.542Z,100.00
2023-04-14T06:52:52.658Z,100.00
2023-04-14T06:55:22.062Z,100.00
2023-04-14T06:57:51.205Z,100.00
2023-04-14T07:00:18.724Z,100.00
2023-04-14T07:02:46.387Z,100.00
2023-04-14T07:05:13.922Z,100.00
2023-04-14T07:07:41.710Z,100.00
2023-04-14T07:10:09.606Z,100.00
2023-04-14T07:12:37.002Z,100.00
2023-04-14T07:15:04.857Z,100.00
2023-04-14T07:17:37.064Z,100.00
2023-04-14T07:20:05.837Z,100.00
2023-04-14T07:22:33.450Z,100.00
2023-04-14T07:25:00.808Z,100.00
2023-04-14T07:27:29.184Z,100.00
2023-04-14T07:29:57.126Z,100.00
2023-04-14T07:32:24.736Z,100.00
2023-04-14T07:34:52.541Z,100.00
2023-04-14T07:37:21.010Z,100.00
2023-04-14T07:39:48.155Z,100.00
2023-04-14T07:42:15.486Z,100.00
2023-04-14T07:44:42.947Z,100.00
2023-04-14T07:47:10.448Z,100.00
2023-04-14T07:49:37.908Z,100.00
2023-04-14T07:52:05.247Z,100.00
2023-04-14T07:54:32.610Z,100.00
2023-04-14T07:57:00.294Z,100.00
2023-04-14T07:59:27.756Z,100.00
2023-04-14T08:01:55.068Z,100.00
2023-04-14T08:04:22.826Z,100.00
2023-04-14T08:06:50.442Z,100.00
2023-04-14T08:09:18.239Z,100.00
2023-04-14T08:11:45.293Z,100.00
2023-04-14T08:14:12.706Z,100.00
2023-04-14T08:16:40.337Z,100.00
2023-04-14T08:19:07.431Z,100.00
2023-04-14T08:21:35.158Z,100.00
2023-04-14T08:24:02.926Z,100.00
2023-04-14T08:26:30.956Z,100.00
2023-04-14T08:28:58.702Z,100.00
2023-04-14T08:31:27.040Z,100.00
2023-04-14T08:33:57.298Z,100.00
2023-04-14T08:36:28.412Z,100.00
2023-04-14T08:38:56.205Z,100.00
2023-04-14T08:41:23.898Z,100.00
2023-04-14T08:43:50.952Z,100.00
2023-04-14T08:46:20.367Z,100.00
2023-04-14T08:48:49.972Z,100.00
2023-04-14T08:51:34.097Z,100.00
2023-04-14T08:54:05.694Z,100.00
2023-04-14T08:56:38.839Z,100.00
2023-04-14T08:59:11.605Z,100.00
2023-04-14T09:01:38.944Z,100.00
2023-04-14T09:04:07.324Z,100.00
2023-04-14T09:06:35.583Z,100.00
2023-04-14T09:09:06.647Z,100.00
2023-04-14T09:11:36.236Z,100.00
2023-04-14T09:14:06.020Z,100.00
2023-04-14T09:16:34.040Z,100.00
2023-04-14T09:19:06.754Z,99.90
2023-04-14T09:21:53.257Z,97.37
2023-04-14T09:24:32.497Z,96.56
2023-04-14T09:27:03.825Z,95.72
2023-04-14T09:29:32.201Z,95.48
2023-04-14T09:32:00.806Z,94.57
2023-04-14T09:34:29.213Z,94.55
2023-04-14T09:37:12.949Z,94.06
2023-04-14T09:39:48.877Z,95.34
2023-04-14T09:42:17.534Z,92.57
2023-04-14T09:44:56.120Z,91.47
2023-04-14T09:47:26.327Z,91.15
2023-04-14T09:50:04.820Z,89.74
2023-04-14T09:52:46.873Z,90.93
2023-04-14T09:55:16.337Z,90.43
2023-04-14T09:57:47.970Z,91.95
2023-04-14T10:00:16.070Z,92.17
2023-04-14T10:02:59.565Z,91.37
2023-04-14T10:05:33.776Z,91.50
2023-04-14T10:08:06.358Z,90.88
2023-04-14T10:10:34.426Z,89.65
2023-04-14T10:13:02.798Z,89.03
2023-04-14T10:15:30.879Z,89.18
2023-04-14T10:17:58.824Z,87.99
2023-04-14T10:20:27.333Z,85.81
2023-04-14T10:22:56.976Z,83.83
2023-04-14T10:25:26.716Z,81.33
2023-04-14T10:27:54.376Z,77.70
2023-04-14T10:30:23.754Z,78.72
2023-04-14T10:32:51.942Z,77.75
2023-04-14T10:35:20.859Z,77.49
2023-04-14T10:37:52.321Z,77.33
2023-04-14T10:40:21.592Z,78.10
2023-04-14T10:42:57.599Z,80.15
2023-04-14T10:45:26.011Z,81.09
2023-04-14T10:47:53.388Z,79.58
2023-04-14T10:50:25.452Z,79.75
2023-04-14T10:52:57.595Z,80.03
2023-04-14T10:55:27.156Z,80.20
2023-04-14T10:58:08.487Z,79.99
2023-04-14T11:00:39.280Z,81.64
2023-04-14T11:03:12.114Z,82.71
2023-04-14T11:05:49.684Z,85.00
2023-04-14T11:08:24.777Z,84.91
2023-04-14T11:11:05.543Z,86.25
2023-04-14T11:13:35.669Z,86.02
2023-04-14T11:16:06.727Z,87.68
2023-04-14T11:18:38.957Z,88.23
2023-04-14T11:21:11.562Z,87.48
2023-04-14T11:23:39.982Z,87.33
2023-04-14T11:26:09.668Z,88.21
2023-04-14T11:28:39.534Z,88.28
2023-04-14T11:31:08.545Z,87.66
2023-04-14T11:33:41.668Z,86.74
2023-04-14T11:36:13.154Z,87.18
2023-04-14T11:41:09.896Z,89.14
2023-04-14T11:43:38.461Z,88.72
2023-04-14T11:46:09.086Z,89.76
2023-04-14T11:48:37.806Z,91.52
2023-04-14T11:51:05.784Z,92.26
2023-04-14T11:53:34.021Z,92.61
2023-04-14T11:56:01.869Z,91.96
2023-04-14T11:58:30.616Z,91.78
2023-04-14T12:00:58.115Z,93.04
2023-04-14T12:03:31.391Z,92.68
2023-04-14T12:06:03.738Z,92.36
2023-04-14T12:08:33.280Z,93.45
2023-04-14T12:11:13.848Z,94.25
2023-04-14T12:13:42.744Z,95.34
2023-04-14T12:16:11.460Z,95.56
2023-04-14T12:18:39.922Z,95.81
2023-04-14T12:21:10.901Z,96.01
2023-04-14T12:23:41.009Z,95.16
2023-04-14T12:26:12.340Z,94.42
2023-04-14T12:28:43.059Z,93.43
2023-04-14T12:31:12.060Z,92.75
2023-04-14T12:33:46.447Z,91.97
2023-04-14T12:36:20.416Z,90.49
2023-04-14T12:38:52.560Z,90.46
2023-04-14T12:41:27.829Z,90.38
2023-04-14T12:43:56.134Z,90.42
2023-04-14T12:46:26.073Z,90.03
2023-04-14T12:48:53.886Z,89.29
2023-04-14T12:51:21.781Z,88.75
2023-04-14T12:53:50.867Z,87.58
2023-04-14T12:56:22.950Z,87.51
2023-04-14T12:58:54.015Z,86.11
2023-04-14T13:01:23.918Z,86.33
2023-04-14T13:03:58.650Z,86.99
2023-04-14T13:06:27.879Z,86.83
2023-04-14T13:09:00.098Z,86.88
2023-04-14T13:11:28.795Z,87.27
2023-04-14T13:13:57.679Z,88.36
2023-04-14T13:16:26.379Z,87.65
2023-04-14T13:18:54.573Z,87.94
2023-04-14T13:21:27.462Z,87.25
2023-04-14T13:23:55.110Z,86.61
2023-04-14T13:26:22.997Z,87.21
2023-04-14T13:28:51.649Z,87.25
2023-04-14T13:31:19.553Z,86.80
2023-04-14T13:33:47.557Z,86.25
2023-04-14T13:36:14.744Z,85.88
2023-04-14T13:38:42.185Z,86.25
2023-04-14T13:41:09.956Z,85.80
2023-04-14T13:43:37.636Z,85.46
2023-04-14T13:46:05.639Z,84.59
2023-04-14T13:48:33.489Z,85.13
2023-04-14T13:51:01.889Z,85.78
2023-04-14T13:53:29.151Z,85.62
2023-04-14T13:55:57.686Z,86.31
2023-04-14T13:58:25.652Z,85.41
2023-04-14T14:00:53.628Z,86.56
2023-04-14T14:03:21.449Z,86.23
2023-04-14T14:05:49.110Z,86.30
2023-04-14T14:08:17.438Z,86.17
2023-04-14T14:10:45.090Z,85.86
2023-04-14T14:13:12.090Z,85.44
2023-04-14T14:15:39.743Z,85.31
2023-04-14T14:18:07.624Z,85.31
2023-04-14T14:20:35.229Z,85.42
2023-04-14T14:23:02.636Z,85.36
2023-04-14T14:25:30.266Z,84.68
2023-04-14T14:27:57.766Z,84.65
2023-04-14T14:30:25.295Z,84.22
2023-04-14T14:32:52.952Z,83.85
2023-04-14T14:35:20.350Z,83.67
2023-04-14T14:37:48.558Z,83.67
2023-04-14T14:40:16.273Z,83.50
2023-04-14T14:42:45.334Z,83.61
2023-04-14T14:45:13.725Z,83.63
2023-04-14T14:47:41.697Z,83.68
2023-04-14T14:50:09.392Z,83.42
2023-04-14T14:52:36.717Z,83.44
2023-04-14T14:55:04.657Z,83.50
2023-04-14T14:57:33.304Z,83.56
2023-04-14T15:00:00.587Z,83.20
2023-04-14T15:02:27.759Z,83.81
2023-04-14T15:04:55.306Z,83.23
2023-04-14T15:07:22.552Z,83.64
2023-04-14T15:09:50.731Z,83.60
2023-04-14T15:12:18.339Z,84.24
2023-04-14T15:14:45.290Z,83.67
2023-04-14T15:17:12.558Z,84.75
2023-04-14T15:19:41.388Z,84.83
2023-04-14T15:22:09.244Z,84.85
2023-04-14T15:24:36.782Z,85.40
2023-04-14T15:27:05.075Z,86.01
2023-04-14T15:29:32.621Z,86.31
2023-04-14T15:32:00.492Z,86.44
2023-04-14T15:34:28.713Z,88.05
2023-04-14T15:36:55.919Z,89.56
2023-04-14T15:39:23.634Z,88.49
2023-04-14T15:41:51.560Z,89.20
2023-04-14T15:44:19.389Z,89.83
2023-04-14T15:46:58.041Z,90.29
2023-04-14T15:49:26.901Z,91.79
2023-04-14T15:51:54.786Z,91.99
2023-04-14T15:54:25.081Z,93.00
2023-04-14T15:56:55.452Z,93.25
2023-04-14T15:59:25.218Z,92.78
2023-04-14T16:01:53.755Z,93.09
2023-04-14T16:04:21.213Z,93.96
2023-04-14T16:06:49.065Z,93.07
2023-04-14T16:09:16.115Z,92.48
2023-04-14T16:11:44.052Z,93.09
2023-04-14T16:14:11.682Z,93.96
2023-04-14T16:16:40.353Z,93.55
2023-04-14T16:19:09.521Z,93.23
2023-04-14T16:21:36.703Z,93.46
2023-04-14T16:24:04.545Z,94.01
2023-04-14T16:26:31.541Z,94.67
2023-04-14T16:29:00.294Z,94.93
2023-04-14T16:31:28.479Z,94.88
2023-04-14T16:33:56.906Z,94.00
2023-04-14T16:36:26.656Z,93.94
2023-04-14T16:38:54.681Z,93.46
2023-04-14T16:41:22.871Z,94.40
2023-04-14T16:43:50.711Z,93.77
2023-04-14T16:46:18.615Z,94.20
2023-04-14T16:48:46.110Z,94.21
2023-04-14T16:51:13.814Z,93.55
2023-04-14T16:53:43.912Z,93.94
2023-04-14T16:56:12.089Z,94.47
2023-04-14T16:58:40.171Z,94.11
2023-04-14T17:01:08.022Z,93.69
2023-04-14T17:03:38.409Z,94.08
2023-04-14T17:06:08.405Z,93.52
2023-04-14T17:08:37.350Z,93.27
2023-04-14T17:11:05.084Z,94.01
2023-04-14T17:13:35.255Z,94.17
2023-04-14T17:16:08.869Z,94.95
2023-04-14T17:18:44.311Z,95.09
2023-04-14T17:21:13.735Z,94.54
2023-04-14T17:23:41.623Z,94.07
2023-04-14T17:26:08.980Z,94.84
2023-04-14T17:28:40.253Z,94.74
2023-04-14T17:31:19.255Z,94.38
2023-04-14T17:33:48.102Z,95.09
2023-04-14T17:36:16.595Z,95.81
2023-04-14T17:38:46.164Z,94.87
2023-04-14T17:41:14.068Z,94.79
2023-04-14T17:43:42.827Z,94.54
2023-04-14T17:46:11.099Z,94.52
2023-04-14T17:48:38.358Z,95.50
2023-04-14T17:51:05.546Z,95.97
2023-04-14T17:53:33.488Z,96.11
2023-04-14T17:56:02.697Z,96.88
2023-04-14T17:58:32.973Z,95.84
2023-04-14T18:01:00.842Z,97.10
2023-04-14T18:03:28.637Z,96.01
2023-04-14T18:05:56.790Z,95.75
2023-04-14T18:08:23.877Z,97.00
2023-04-14T18:10:51.641Z,96.31
2023-04-14T18:13:19.492Z,96.44
2023-04-14T18:15:48.256Z,95.94
2023-04-14T18:18:16.069Z,96.13
2023-04-14T18:20:50.238Z,95.95
2023-04-14T18:23:17.837Z,96.53
2023-04-14T18:28:15.202Z,95.83
2023-04-14T18:30:42.449Z,95.71
2023-04-14T18:33:09.791Z,96.51
2023-04-14T18:35:36.627Z,95.91
2023-04-14T18:38:03.813Z,96.17
2023-04-14T18:40:31.708Z,95.83
2023-04-14T18:42:59.340Z,96.06
2023-04-14T18:45:26.722Z,96.00
2023-04-14T18:47:54.697Z,95.44
2023-04-14T18:50:22.084Z,95.70
2023-04-14T18:52:49.286Z,95.14
2023-04-14T18:55:16.747Z,95.48
2023-04-14T18:57:44.125Z,95.34
2023-04-14T19:00:13.467Z,95.11
2023-04-14T19:02:41.410Z,95.28
2023-04-14T19:05:10.137Z,95.90
2023-04-14T19:07:37.728Z,95.64
2023-04-14T19:10:05.464Z,95.24
2023-04-14T19:12:32.934Z,95.72
2023-04-14T19:15:02.950Z,94.81
2023-04-14T19:17:34.446Z,95.29
2023-04-14T19:20:02.120Z,94.83
2023-04-14T19:22:29.387Z,95.11
2023-04-14T19:24:57.009Z,95.09
2023-04-14T19:27:24.991Z,95.25
2023-04-14T19:29:52.631Z,95.33
2023-04-14T19:32:20.137Z,95.39
2023-04-14T19:34:47.421Z,95.19
2023-04-14T19:37:15.094Z,95.17
2023-04-14T19:39:42.678Z,94.76
2023-04-14T19:42:09.878Z,94.57
2023-04-14T19:44:37.328Z,94.30
2023-04-14T19:47:05.241Z,94.89
2023-04-14T19:49:32.474Z,94.57
2023-04-14T19:51:59.971Z,93.80
2023-04-14T19:54:28.223Z,93.58
2023-04-14T19:56:55.814Z,93.71
2023-04-14T19:59:22.942Z,93.49
2023-04-14T20:01:51.799Z,93.05
2023-04-14T20:04:19.120Z,92.94
2023-04-14T20:06:46.445Z,92.94
2023-04-14T20:09:14.089Z,92.88
2023-04-14T20:11:41.066Z,93.46
2023-04-14T20:14:08.304Z,93.02
2023-04-14T20:16:35.097Z,93.47
2023-04-14T20:19:02.345Z,93.26
2023-04-14T20:21:30.171Z,93.06
2023-04-14T20:23:58.015Z,93.22
2023-04-14T20:26:24.830Z,93.42
2023-04-14T20:28:51.529Z,93.60
2023-04-14T20:31:18.943Z,92.92
2023-04-14T20:33:46.233Z,92.19
2023-04-14T20:36:14.304Z,92.17
2023-04-14T20:38:42.179Z,92.53
2023-04-14T20:41:10.902Z,92.23
2023-04-14T20:43:38.022Z,91.98
2023-04-14T20:46:05.615Z,91.90
2023-04-14T20:48:33.020Z,91.50
2023-04-14T20:51:01.599Z,91.31
2023-04-14T20:53:30.375Z,91.68
2023-04-14T20:55:57.297Z,91.25
2023-04-14T20:58:25.343Z,90.63
2023-04-14T21:00:52.695Z,91.26
2023-04-14T21:03:20.488Z,91.15
2023-04-14T21:05:47.548Z,91.23
2023-04-14T21:08:14.998Z,91.02
2023-04-14T21:11:02.274Z,90.70
2023-04-14T21:15:27.919Z,91.22
2023-04-14T21:16:18.305Z,91.26
2023-04-14T21:18:46.431Z,91.11
2023-04-14T21:21:13.930Z,91.44
2023-04-14T21:23:41.832Z,91.37
2023-04-14T21:26:09.529Z,91.59
2023-04-14T21:28:39.506Z,91.01
2023-04-14T21:31:07.080Z,91.25
2023-04-14T21:33:34.179Z,91.49
2023-04-14T21:36:02.027Z,91.81
2023-04-14T21:38:29.710Z,91.21
2023-04-14T21:40:56.898Z,91.55
2023-04-14T21:43:24.063Z,91.73
2023-04-14T21:45:51.747Z,91.78
2023-04-14T21:48:19.446Z,91.35
2023-04-14T21:50:47.334Z,91.47
2023-04-14T21:53:14.471Z,91.55
2023-04-14T21:55:42.273Z,91.45
2023-04-14T21:58:09.304Z,91.01
2023-04-14T22:00:37.442Z,90.61
2023-04-14T22:03:05.086Z,90.35
2023-04-14T22:05:32.406Z,90.43
2023-04-14T22:07:59.543Z,89.49
2023-04-14T22:10:32.428Z,89.12
2023-04-14T22:13:00.644Z,88.76
2023-04-14T22:15:28.004Z,88.56
2023-04-14T22:17:55.174Z,87.77
2023-04-14T22:20:23.858Z,88.26
2023-04-14T22:22:50.765Z,87.69
2023-04-14T22:25:17.925Z,86.98
2023-04-14T22:27:45.125Z,87.49
2023-04-14T22:30:12.528Z,87.03
2023-04-14T22:32:39.891Z,87.08
2023-04-14T22:35:07.421Z,86.83
2023-04-14T22:37:34.713Z,87.00
2023-04-14T22:40:03.413Z,87.03
2023-04-14T22:42:31.731Z,87.79
2023-04-14T22:44:59.018Z,88.34
2023-04-14T22:47:26.353Z,88.17
2023-04-14T22:49:53.718Z,89.16
2023-04-14T22:52:21.136Z,89.18
2023-04-14T22:54:49.475Z,89.35
2023-04-14T22:57:17.676Z,90.81
2023-04-14T22:59:44.910Z,90.57
2023-04-14T23:02:13.105Z,91.98
2023-04-14T23:04:40.182Z,91.73
2023-04-14T23:07:07.130Z,93.09
2023-04-14T23:09:34.313Z,93.38
2023-04-14T23:12:02.767Z,92.28
2023-04-14T23:14:30.219Z,93.25
2023-04-14T23:16:58.360Z,94.22
2023-04-14T23:19:25.687Z,94.13
2023-04-14T23:21:53.284Z,94.92
2023-04-14T23:24:21.069Z,94.03
2023-04-14T23:26:47.778Z,95.42
2023-04-14T23:29:14.891Z,96.48
2023-04-14T23:31:41.901Z,96.29
2023-04-14T23:34:11.061Z,95.73
2023-04-14T23:36:38.478Z,96.30
2023-04-14T23:39:05.957Z,95.84
2023-04-14T23:41:34.594Z,96.62
2023-04-14T23:44:04.353Z,96.56
2023-04-14T23:46:38.939Z,96.70
2023-04-14T23:49:24.388Z,96.39
2023-04-14T23:51:54.666Z,96.26
2023-04-14T23:54:21.939Z,96.93
2023-04-14T23:56:48.949Z,96.83
2023-04-14T23:59:17.156Z,97.08
